createdAt,value
2022-10-12T00:01:59.970Z,102493.56
2022-10-12T00:04:30.931Z,102490.30
2022-10-12T00:07:01.964Z,102490.55
2022-10-12T00:09:31.334Z,102485.72
2022-10-12T00:12:00.559Z,102487.19
2022-10-12T00:14:30.642Z,102490.28
2022-10-12T00:17:00.110Z,102499.78
2022-10-12T00:19:29.347Z,102497.22
2022-10-12T00:21:58.586Z,102494.16
2022-10-12T00:24:27.830Z,102487.17
2022-10-12T00:26:57.087Z,102486.00
2022-10-12T00:29:26.821Z,102488.50
2022-10-12T00:31:56.077Z,102484.15
2022-10-12T00:34:27.367Z,102487.03
2022-10-12T00:36:57.484Z,102484.56
2022-10-12T00:39:26.718Z,102480.41
2022-10-12T00:41:57.516Z,102478.77
2022-10-12T00:44:46.357Z,102477.73
2022-10-12T00:47:24.204Z,102477.63
2022-10-12T00:49:59.350Z,102484.07
2022-10-12T00:52:44.550Z,102474.78
2022-10-12T00:55:16.369Z,102474.98
2022-10-12T00:57:47.403Z,102469.63
2022-10-12T01:00:18.083Z,102472.17
2022-10-12T01:02:48.860Z,102473.91
2022-10-12T01:05:20.001Z,102467.94
2022-10-12T01:07:50.126Z,102472.44
2022-10-12T01:10:19.728Z,102472.57
2022-10-12T01:12:50.324Z,102479.62
2022-10-12T01:15:20.561Z,102472.64
2022-10-12T01:18:03.421Z,102475.31
2022-10-12T01:20:46.929Z,102468.20
2022-10-12T01:23:19.739Z,102465.59
2022-10-12T01:26:17.970Z,102465.45
2022-10-12T01:29:01.038Z,102465.14
2022-10-12T01:31:33.580Z,102462.67
2022-10-12T01:34:03.714Z,102466.89
2022-10-12T01:36:36.315Z,102460.37
2022-10-12T01:39:26.450Z,102459.86
2022-10-12T01:41:58.489Z,102458.27
2022-10-12T01:44:30.080Z,102450.45
2022-10-12T01:46:59.590Z,102444.86
2022-10-12T01:49:30.906Z,102440.44
2022-10-12T01:52:09.765Z,102441.83
2022-10-12T01:54:43.634Z,102443.16
2022-10-12T01:57:43.363Z,102443.98
2022-10-12T02:00:15.089Z,102443.84
2022-10-12T02:02:58.222Z,102437.88
2022-10-12T02:05:42.656Z,102440.86
2022-10-12T02:08:26.637Z,102446.16
2022-10-12T02:10:59.049Z,102442.61
2022-10-12T02:13:30.719Z,102440.70
2022-10-12T02:16:02.166Z,102439.22
2022-10-12T02:18:32.092Z,102435.36
2022-10-12T02:21:01.652Z,102439.05
2022-10-12T02:23:31.081Z,102435.05
2022-10-12T02:26:01.773Z,102434.53
2022-10-12T02:28:32.166Z,102435.87
2022-10-12T02:31:04.934Z,102425.36
2022-10-12T02:33:46.167Z,102419.59
2022-10-12T02:36:21.504Z,102421.29
2022-10-12T02:39:02.593Z,102416.43
2022-10-12T02:41:41.051Z,102410.32
2022-10-12T02:44:14.329Z,102414.72
2022-10-12T02:46:46.928Z,102412.73
2022-10-12T02:49:16.832Z,102407.39
2022-10-12T02:51:46.683Z,102403.90
2022-10-12T02:54:16.781Z,102401.80
2022-10-12T02:56:48.180Z,102399.95
2022-10-12T02:59:19.427Z,102407.95
2022-10-12T03:01:49.077Z,102404.81
2022-10-12T03:04:18.436Z,102396.80
2022-10-12T03:06:48.014Z,102403.08
2022-10-12T03:09:17.304Z,102395.01
2022-10-12T03:11:46.585Z,102395.01
2022-10-12T03:14:17.472Z,102399.22
2022-10-12T03:16:48.164Z,102392.84
2022-10-12T03:19:17.400Z,102402.97
2022-10-12T03:21:47.120Z,102398.39
2022-10-12T03:24:18.162Z,102396.89
2022-10-12T03:26:47.406Z,102392.05
2022-10-12T03:29:17.015Z,102394.84
2022-10-12T03:31:47.905Z,102392.31
2022-10-12T03:34:18.488Z,102391.40
2022-10-12T03:36:49.411Z,102392.63
2022-10-12T03:39:18.687Z,102392.11
2022-10-12T03:41:50.740Z,102394.64
2022-10-12T03:44:21.281Z,102392.94
2022-10-12T03:46:52.287Z,102391.80
2022-10-12T03:49:21.728Z,102397.97
2022-10-12T03:51:51.111Z,102396.48
2022-10-12T03:54:21.096Z,102387.54
2022-10-12T03:56:51.905Z,102389.41
2022-10-12T03:59:21.130Z,102389.41
2022-10-12T04:01:52.106Z,102385.92
2022-10-12T04:04:21.693Z,102384.89
2022-10-12T04:06:51.183Z,102380.27
2022-10-12T04:09:20.585Z,102375.09
2022-10-12T04:11:50.374Z,102376.83
2022-10-12T04:14:19.818Z,102378.98
2022-10-12T04:16:49.059Z,102385.61
2022-10-12T04:19:18.422Z,102386.09
2022-10-12T04:21:48.061Z,102378.02
2022-10-12T04:24:17.441Z,102383.67
2022-10-12T04:26:48.345Z,102389.92
2022-10-12T04:29:18.385Z,102390.80
2022-10-12T04:31:47.791Z,102387.20
2022-10-12T04:34:17.005Z,102379.66
2022-10-12T04:36:46.489Z,102381.09
2022-10-12T04:39:15.712Z,102383.92
2022-10-12T04:41:45.201Z,102382.11
2022-10-12T04:44:14.445Z,102378.98
2022-10-12T04:46:43.842Z,102382.16
2022-10-12T04:49:13.447Z,102379.61
2022-10-12T04:51:44.315Z,102379.30
2022-10-12T04:54:13.648Z,102379.30
2022-10-12T04:56:47.961Z,102373.59
2022-10-12T04:59:14.739Z,102371.74
2022-10-12T05:01:44.845Z,102367.03
2022-10-12T05:04:14.798Z,102374.67
2022-10-12T05:06:45.900Z,102366.77
2022-10-12T05:09:17.101Z,102364.76
2022-10-12T05:11:48.481Z,102362.40
2022-10-12T05:14:17.857Z,102357.23
2022-10-12T05:16:47.988Z,102358.45
2022-10-12T05:19:18.905Z,102361.48
2022-10-12T05:21:48.159Z,102359.47
2022-10-12T05:24:19.015Z,102352.14
2022-10-12T05:26:48.247Z,102350.30
2022-10-12T05:29:17.797Z,102348.14
2022-10-12T05:31:47.512Z,102354.50
2022-10-12T05:34:17.122Z,102350.39
2022-10-12T05:36:46.366Z,102351.52
2022-10-12T05:39:15.608Z,102354.50
2022-10-12T05:41:45.757Z,102362.00
2022-10-12T05:44:15.019Z,102359.33
2022-10-12T05:46:44.340Z,102357.17
2022-10-12T05:49:13.848Z,102355.16
2022-10-12T05:51:43.274Z,102354.64
2022-10-12T05:54:12.760Z,102350.44
2022-10-12T05:56:43.386Z,102356.91
2022-10-12T05:59:12.998Z,102355.41
2022-10-12T06:01:42.454Z,102351.83
2022-10-12T06:04:12.929Z,102352.03
2022-10-12T06:06:43.860Z,102352.55
2022-10-12T06:09:13.376Z,102353.05
2022-10-12T06:11:43.706Z,102350.38
2022-10-12T06:14:13.177Z,102350.81
2022-10-12T06:16:43.721Z,102351.78
2022-10-12T06:19:13.640Z,102342.23
2022-10-12T06:21:42.919Z,102345.55
2022-10-12T06:24:12.513Z,102350.23
2022-10-12T06:26:41.883Z,102346.06
2022-10-12T06:29:13.091Z,102351.83
2022-10-12T06:31:45.556Z,102352.14
2022-10-12T06:34:14.362Z,102346.63
2022-10-12T06:36:44.439Z,102344.64
2022-10-12T06:39:14.087Z,102342.48
2022-10-12T06:41:43.383Z,102342.69
2022-10-12T06:44:12.794Z,102346.49
2022-10-12T06:46:42.218Z,102344.58
2022-10-12T06:49:12.102Z,102346.13
2022-10-12T06:51:41.460Z,102347.05
2022-10-12T06:54:11.180Z,102348.02
2022-10-12T06:56:42.005Z,102346.52
2022-10-12T06:59:13.671Z,102342.45
2022-10-12T07:01:43.000Z,102342.45
2022-10-12T07:04:15.516Z,102338.95
2022-10-12T07:06:45.114Z,102332.52
2022-10-12T07:09:15.172Z,102334.69
2022-10-12T07:11:44.579Z,102332.77
2022-10-12T07:14:14.235Z,102329.32
2022-10-12T07:16:43.844Z,102330.29
2022-10-12T07:19:13.206Z,102326.15
2022-10-12T07:21:44.027Z,102333.31
2022-10-12T07:24:14.204Z,102329.78
2022-10-12T07:26:45.487Z,102338.89
2022-10-12T07:29:15.998Z,102341.48
2022-10-12T07:31:49.848Z,102349.23
2022-10-12T07:34:17.715Z,102354.61
2022-10-12T07:36:59.266Z,102355.87
2022-10-12T07:39:20.457Z,102360.73
2022-10-12T07:41:52.270Z,102362.37
2022-10-12T07:44:22.840Z,102359.18
2022-10-12T07:46:52.237Z,102357.79
2022-10-12T07:49:21.712Z,102365.55
2022-10-12T07:51:51.135Z,102357.89
2022-10-12T07:54:24.500Z,102358.25
2022-10-12T07:56:53.430Z,102357.45
2022-10-12T07:59:22.877Z,102354.08
2022-10-12T08:01:52.316Z,102363.48
2022-10-12T08:04:21.756Z,102352.02
2022-10-12T08:06:51.315Z,102357.88
2022-10-12T08:09:22.661Z,102355.84
2022-10-12T08:11:53.276Z,102362.60
2022-10-12T08:14:22.825Z,102356.57
2022-10-12T08:16:52.079Z,102358.86
2022-10-12T08:19:21.670Z,102365.05
2022-10-12T08:21:52.535Z,102368.40
2022-10-12T08:24:25.175Z,102368.70
2022-10-12T08:26:55.939Z,102368.32
2022-10-12T08:29:24.709Z,102369.69
2022-10-12T08:31:54.670Z,102372.48
2022-10-12T08:34:25.232Z,102381.91
2022-10-12T08:36:54.804Z,102377.15
2022-10-12T08:39:24.126Z,102377.73
2022-10-12T08:42:02.863Z,102379.86
2022-10-12T08:44:59.338Z,102380.70
2022-10-12T08:47:51.729Z,102380.44
2022-10-12T08:50:33.942Z,102377.38
2022-10-12T08:53:06.450Z,102369.26
2022-10-12T08:55:37.254Z,102371.23
2022-10-12T08:58:11.049Z,102375.03
2022-10-12T09:00:40.361Z,102383.42
2022-10-12T09:03:26.150Z,102388.27
2022-10-12T09:06:04.465Z,102386.19
2022-10-12T09:08:46.014Z,102381.30
2022-10-12T09:11:30.891Z,102382.20
2022-10-12T09:14:06.486Z,102383.80
2022-10-12T09:16:39.088Z,102378.59
2022-10-12T09:19:24.833Z,102375.81
2022-10-12T09:21:54.089Z,102370.75
2022-10-12T09:24:33.030Z,102367.33
2022-10-12T09:27:05.432Z,102357.53
2022-10-12T09:29:36.216Z,102349.47
2022-10-12T09:32:08.640Z,102361.94
2022-10-12T09:34:39.111Z,102358.07
2022-10-12T09:37:13.360Z,102359.08
2022-10-12T09:39:42.923Z,102364.75
2022-10-12T09:42:12.597Z,102375.95
2022-10-12T09:44:44.849Z,102377.47
2022-10-12T09:47:28.926Z,102379.22
2022-10-12T09:50:04.291Z,102381.27
2022-10-12T09:52:42.525Z,102375.34
2022-10-12T09:55:19.690Z,102370.22
2022-10-12T09:58:00.344Z,102361.36
2022-10-12T10:00:34.902Z,102368.02
2022-10-12T10:03:04.895Z,102366.53
2022-10-12T10:05:39.143Z,102366.81
2022-10-12T10:08:24.650Z,102360.36
2022-10-12T10:10:57.439Z,102360.55
2022-10-12T10:13:30.877Z,102363.73
2022-10-12T10:16:08.896Z,102363.34
2022-10-12T10:18:45.078Z,102356.34
2022-10-12T10:21:17.853Z,102351.76
2022-10-12T10:24:05.369Z,102351.58
2022-10-12T10:26:54.482Z,102340.03
2022-10-12T10:29:39.117Z,102342.32
2022-10-12T10:32:14.692Z,102335.80
2022-10-12T10:34:44.194Z,102333.45
2022-10-12T10:37:19.541Z,102316.48
2022-10-12T10:39:54.248Z,102314.41
2022-10-12T10:42:29.184Z,102303.67
2022-10-12T10:45:04.635Z,102300.80
2022-10-12T10:47:35.537Z,102292.80
2022-10-12T10:50:06.687Z,102298.05
2022-10-12T10:52:37.309Z,102292.02
2022-10-12T10:55:12.686Z,102287.08
2022-10-12T10:57:47.663Z,102285.22
2022-10-12T11:00:37.880Z,102272.27
2022-10-12T11:02:56.680Z,102267.92
2022-10-12T11:05:31.815Z,102264.28
2022-10-12T11:08:04.126Z,102266.34
2022-10-12T11:10:47.982Z,102268.95
2022-10-12T11:13:32.336Z,102265.67
2022-10-12T11:16:10.544Z,102264.87
2022-10-12T11:18:49.380Z,102261.75
2022-10-12T11:21:27.769Z,102261.75
2022-10-12T11:24:21.426Z,102263.44
2022-10-12T11:27:10.711Z,102268.00
2022-10-12T11:29:41.984Z,102258.00
2022-10-12T11:32:29.316Z,102265.91
2022-10-12T11:35:07.829Z,102255.92
2022-10-12T11:37:40.754Z,102251.66
2022-10-12T11:40:14.856Z,102248.60
2022-10-12T11:42:44.330Z,102250.47
2022-10-12T11:45:29.983Z,102246.72
2022-10-12T11:48:14.384Z,102238.85
2022-10-12T11:50:47.738Z,102245.75
2022-10-12T11:53:52.252Z,102241.30
2022-10-12T11:56:27.334Z,102245.74
2022-10-12T11:59:06.856Z,102234.94
2022-10-12T12:01:52.365Z,102227.31
2022-10-12T12:04:42.672Z,102237.06
2022-10-12T12:06:58.895Z,102223.77
2022-10-12T12:09:34.419Z,102220.80
2022-10-12T12:12:25.375Z,102224.90
2022-10-12T12:14:57.903Z,102227.80
2022-10-12T12:17:31.740Z,102218.73
2022-10-12T12:20:01.252Z,102216.39
2022-10-12T12:22:39.819Z,102220.69
2022-10-12T12:25:13.055Z,102218.92
2022-10-12T12:27:45.002Z,102207.73
2022-10-12T12:30:24.420Z,102202.06
2022-10-12T12:32:59.203Z,102198.88
2022-10-12T12:35:43.823Z,102198.34
2022-10-12T12:38:17.309Z,102197.69
2022-10-12T12:40:58.123Z,102198.67
2022-10-12T12:43:36.235Z,102188.37
2022-10-12T12:46:08.259Z,102185.92
2022-10-12T12:48:46.715Z,102186.04
2022-10-12T12:51:21.938Z,102198.33
2022-10-12T12:54:15.443Z,102193.09
2022-10-12T12:56:53.861Z,102201.17
2022-10-12T12:59:46.613Z,102200.72
2022-10-12T13:02:43.239Z,102188.24
2022-10-12T13:05:43.327Z,102187.11
2022-10-12T13:08:30.578Z,102183.86
2022-10-12T13:11:08.955Z,102186.36
2022-10-12T13:13:51.017Z,102187.39
2022-10-12T13:17:31.388Z,102181.74
2022-10-12T13:19:28.170Z,102174.29
2022-10-12T13:21:59.830Z,102167.25
2022-10-12T13:24:34.644Z,102160.91
2022-10-12T13:27:23.763Z,102169.14
2022-10-12T13:30:01.656Z,102161.86
2022-10-12T13:32:37.392Z,102156.58
2022-10-12T13:35:26.545Z,102158.31
2022-10-12T13:38:16.711Z,102160.01
2022-10-12T13:40:51.545Z,102165.59
2022-10-12T13:43:30.052Z,102159.31
2022-10-12T13:45:59.378Z,102153.02
2022-10-12T13:48:57.489Z,102148.92
2022-10-12T13:51:04.401Z,102159.00
2022-10-12T13:53:36.733Z,102158.01
2022-10-12T13:56:11.964Z,102165.17
2022-10-12T13:58:41.549Z,102153.45
2022-10-12T14:01:14.730Z,102140.67
2022-10-12T14:03:45.604Z,102153.59
2022-10-12T14:06:35.317Z,102145.67
2022-10-12T14:09:16.992Z,102152.74
2022-10-12T14:11:47.762Z,102135.05
2022-10-12T14:14:37.562Z,102127.12
2022-10-12T14:17:07.671Z,102121.14
2022-10-12T14:19:43.098Z,102116.13
2022-10-12T14:22:15.728Z,102118.79
2022-10-12T14:24:45.387Z,102122.28
2022-10-12T14:27:24.064Z,102119.09
2022-10-12T14:29:56.848Z,102102.94
2022-10-12T14:32:37.870Z,102096.43
2022-10-12T14:35:27.403Z,102087.72
2022-10-12T14:37:57.520Z,102087.99
2022-10-12T14:40:30.356Z,102088.84
2022-10-12T14:43:09.744Z,102090.10
2022-10-12T14:45:39.289Z,102083.32
2022-10-12T14:48:15.015Z,102077.33
2022-10-12T14:50:44.841Z,102075.70
2022-10-12T14:53:15.517Z,102074.51
2022-10-12T14:55:45.324Z,102069.19
2022-10-12T14:58:17.488Z,102068.62
2022-10-12T15:00:46.965Z,102070.52
2022-10-12T15:03:18.221Z,102064.31
2022-10-12T15:05:47.544Z,102061.27
2022-10-12T15:08:16.907Z,102057.94
2022-10-12T15:10:47.258Z,102063.94
2022-10-12T15:13:16.521Z,102064.45
2022-10-12T15:15:48.492Z,102064.33
2022-10-12T15:18:17.823Z,102075.67
2022-10-12T15:20:49.817Z,102075.66
2022-10-12T15:23:19.340Z,102079.86
2022-10-12T15:26:00.016Z,102075.94
2022-10-12T15:28:30.080Z,102077.25
2022-10-12T15:31:16.835Z,102071.80
2022-10-12T15:33:33.518Z,102069.12
2022-10-12T15:36:03.350Z,102064.88
2022-10-12T15:38:32.993Z,102058.72
2022-10-12T15:41:02.390Z,102061.66
2022-10-12T15:43:33.712Z,102063.86
2022-10-12T15:46:03.038Z,102061.70
2022-10-12T15:48:32.277Z,102073.05
2022-10-12T15:51:01.662Z,102070.80
2022-10-12T15:53:31.804Z,102073.72
2022-10-12T15:56:01.188Z,102067.98
2022-10-12T15:58:30.453Z,102059.95
2022-10-12T16:00:59.788Z,102057.97
2022-10-12T16:03:30.791Z,102055.27
2022-10-12T16:06:00.846Z,102049.22
2022-10-12T16:08:30.259Z,102052.47
2022-10-12T16:10:59.864Z,102046.78
2022-10-12T16:13:29.520Z,102049.77
2022-10-12T16:15:58.788Z,102057.88
2022-10-12T16:18:29.438Z,102063.02
2022-10-12T16:20:58.781Z,102059.00
2022-10-12T16:23:33.306Z,102045.42
2022-10-12T16:26:12.469Z,102055.92
2022-10-12T16:28:42.605Z,102056.14
2022-10-12T16:31:17.876Z,102053.06
2022-10-12T16:33:47.330Z,102058.83
2022-10-12T16:36:17.779Z,102056.28
2022-10-12T16:38:47.213Z,102049.25
2022-10-12T16:41:20.747Z,102049.03
2022-10-12T16:43:49.699Z,102046.05
2022-10-12T16:46:19.070Z,102051.17
2022-10-12T16:48:48.421Z,102052.09
2022-10-12T16:51:17.801Z,102045.79
2022-10-12T16:53:47.043Z,102046.11
2022-10-12T16:56:16.355Z,102045.91
2022-10-12T16:58:45.776Z,102045.17
2022-10-12T17:01:15.164Z,102043.27
2022-10-12T17:03:44.612Z,102046.76
2022-10-12T17:06:14.096Z,102047.81
2022-10-12T17:08:43.495Z,102055.67
2022-10-12T17:11:17.027Z,102050.89
2022-10-12T17:13:49.167Z,102044.69
2022-10-12T17:16:35.795Z,102042.03
2022-10-12T17:19:05.235Z,102052.59
2022-10-12T17:21:35.417Z,102048.86
2022-10-12T17:24:05.019Z,102048.62
2022-10-12T17:26:40.089Z,102045.70
2022-10-12T17:29:07.592Z,102034.77
2022-10-12T17:31:37.795Z,102040.28
2022-10-12T17:34:07.409Z,102048.53
2022-10-12T17:36:37.173Z,102046.08
2022-10-12T17:39:06.412Z,102045.64
2022-10-12T17:41:35.650Z,102047.10
2022-10-12T17:44:05.069Z,102046.93
2022-10-12T17:46:34.335Z,102046.44
2022-10-12T17:49:04.574Z,102045.58
2022-10-12T17:51:34.004Z,102054.86
2022-10-12T17:54:03.410Z,102051.88
2022-10-12T17:56:33.033Z,102051.94
2022-10-12T17:59:04.349Z,102053.52
2022-10-12T18:01:34.584Z,102050.70
2022-10-12T18:04:04.958Z,102057.82
2022-10-12T18:06:35.091Z,102043.27
2022-10-12T18:09:05.403Z,102045.14
2022-10-12T18:11:35.464Z,102045.88
2022-10-12T18:14:04.991Z,102044.55
2022-10-12T18:16:35.099Z,102045.61
2022-10-12T18:19:07.549Z,102044.79
2022-10-12T18:21:37.203Z,102035.85
2022-10-12T18:24:14.895Z,102037.41
2022-10-12T18:26:41.926Z,102033.45
2022-10-12T18:29:11.197Z,102035.09
2022-10-12T18:31:40.889Z,102032.40
2022-10-12T18:34:10.431Z,102036.72
2022-10-12T18:36:41.345Z,102031.34
2022-10-12T18:39:10.767Z,102030.89
2022-10-12T18:41:40.522Z,102029.02
2022-10-12T18:44:12.292Z,102028.50
2022-10-12T18:46:41.736Z,102030.81
2022-10-12T18:49:12.910Z,102029.13
2022-10-12T18:51:46.149Z,102030.39
2022-10-12T18:54:17.331Z,102027.13
2022-10-12T18:56:47.178Z,102025.41
2022-10-12T18:59:20.603Z,102025.64
2022-10-12T19:01:49.933Z,102013.30
2022-10-12T19:04:21.100Z,102020.80
2022-10-12T19:06:55.561Z,102021.97
2022-10-12T19:09:22.363Z,102019.67
2022-10-12T19:11:51.779Z,102015.73
2022-10-12T19:14:21.324Z,102016.05
2022-10-12T19:16:52.054Z,102012.92
2022-10-12T19:19:21.898Z,102019.50
2022-10-12T19:21:52.355Z,102020.70
2022-10-12T19:24:22.535Z,102016.53
2022-10-12T19:26:51.946Z,102016.47
2022-10-12T19:29:21.502Z,102009.52
2022-10-12T19:31:52.155Z,102008.36
2022-10-12T19:34:23.622Z,102008.88
2022-10-12T19:36:53.200Z,102001.12
2022-10-12T19:39:24.355Z,101997.44
2022-10-12T19:41:54.080Z,101986.25
2022-10-12T19:44:23.595Z,101987.97
2022-10-12T19:46:55.044Z,101983.55
2022-10-12T19:49:24.527Z,101988.31
2022-10-12T19:51:54.055Z,101984.94
2022-10-12T19:54:23.715Z,101983.66
2022-10-12T19:56:53.163Z,101985.42
2022-10-12T19:59:22.606Z,101984.98
2022-10-12T20:01:52.059Z,101984.35
2022-10-12T20:04:21.378Z,101986.59
2022-10-12T20:06:50.769Z,101982.61
2022-10-12T20:09:20.181Z,101979.48
2022-10-12T20:11:49.753Z,101990.77
2022-10-12T20:14:19.130Z,101994.42
2022-10-12T20:16:48.687Z,101992.41
2022-10-12T20:19:18.563Z,101988.72
2022-10-12T20:21:48.224Z,101981.34
2022-10-12T20:24:18.765Z,101985.76
2022-10-12T20:26:48.126Z,101988.07
2022-10-12T20:29:17.896Z,101981.06
2022-10-12T20:31:47.392Z,101977.71
2022-10-12T20:34:16.742Z,101980.25
2022-10-12T20:36:46.371Z,101976.08
2022-10-12T20:39:15.861Z,101974.59
2022-10-12T20:41:46.285Z,101973.73
2022-10-12T20:44:15.691Z,101967.69
2022-10-12T20:46:48.416Z,101966.87
2022-10-12T20:49:18.087Z,101963.27
2022-10-12T20:51:47.438Z,101963.75
2022-10-12T20:54:18.883Z,101968.59
2022-10-12T20:56:50.080Z,101960.83
2022-10-12T20:59:20.389Z,101955.39
2022-10-12T21:01:49.836Z,101952.71
2022-10-12T21:04:19.181Z,101949.11
2022-10-12T21:06:48.507Z,101954.98
2022-10-12T21:09:18.194Z,101949.02
2022-10-12T21:11:47.721Z,101952.27
2022-10-12T21:14:17.059Z,101956.25
2022-10-12T21:16:46.770Z,101944.28
2022-10-12T21:19:17.392Z,101941.58
2022-10-12T21:21:47.148Z,101944.39
2022-10-12T21:24:16.723Z,101944.97
2022-10-12T21:26:46.401Z,101946.08
2022-10-12T21:29:15.751Z,101947.67
2022-10-12T21:31:45.264Z,101953.71
2022-10-12T21:34:14.747Z,101952.20
2022-10-12T21:36:44.046Z,101954.70
2022-10-12T21:39:16.298Z,101949.23
2022-10-12T21:41:45.649Z,101951.15
2022-10-12T21:44:15.115Z,101954.70
2022-10-12T21:46:44.443Z,101949.44
2022-10-12T21:49:16.382Z,101950.33
2022-10-12T21:51:46.074Z,101948.22
2022-10-12T21:54:16.488Z,101944.90
2022-10-12T21:56:45.953Z,101936.58
2022-10-12T21:59:18.256Z,101929.56
2022-10-12T22:01:47.747Z,101928.27
2022-10-12T22:04:17.482Z,101925.33
2022-10-12T22:06:46.737Z,101930.08
2022-10-12T22:09:19.304Z,101930.94
2022-10-12T22:11:50.261Z,101922.98
2022-10-12T22:14:20.175Z,101917.59
2022-10-12T22:16:49.647Z,101921.63
2022-10-12T22:19:19.759Z,101921.63
2022-10-12T22:21:51.342Z,101916.73
2022-10-12T22:24:22.010Z,101919.95
2022-10-12T22:26:51.425Z,101928.60
2022-10-12T22:29:22.421Z,101932.64
2022-10-12T22:31:51.753Z,101929.42
2022-10-12T22:34:21.196Z,101929.00
2022-10-12T22:36:50.545Z,101920.92
2022-10-12T22:39:23.367Z,101923.27
2022-10-12T22:41:52.814Z,101934.11
2022-10-12T22:44:22.528Z,101926.03
2022-10-12T22:46:53.725Z,101927.80
2022-10-12T22:49:23.278Z,101933.69
2022-10-12T22:51:52.622Z,101924.53
2022-10-12T22:54:22.037Z,101922.25
2022-10-12T22:56:54.566Z,101919.25
2022-10-12T22:59:24.054Z,101918.09
2022-10-12T23:01:53.375Z,101916.47
2022-10-12T23:04:24.006Z,101916.47
2022-10-12T23:06:53.569Z,101902.98
2022-10-12T23:09:22.858Z,101907.94
2022-10-12T23:11:52.536Z,101900.64
2022-10-12T23:14:21.995Z,101898.91
2022-10-12T23:16:51.273Z,101901.08
2022-10-12T23:19:20.730Z,101895.34
2022-10-12T23:21:50.079Z,101899.38
2022-10-12T23:24:20.455Z,101891.33
2022-10-12T23:26:49.853Z,101889.14
2022-10-12T23:29:19.216Z,101897.13
2022-10-12T23:31:48.776Z,101891.17
2022-10-12T23:34:18.203Z,101896.21
2022-10-12T23:36:49.360Z,101891.54
2022-10-12T23:39:18.755Z,101879.59
2022-10-12T23:41:48.167Z,101878.13
2022-10-12T23:44:18.025Z,101874.59
2022-10-12T23:46:47.474Z,101875.47
2022-10-12T23:49:17.224Z,101870.36
2022-10-12T23:51:46.631Z,101868.11
2022-10-12T23:54:16.300Z,101863.53
2022-10-12T23:56:46.923Z,101862.41
2022-10-12T23:59:16.430Z,101861.66
